sensor_id;sensor_type;location;lat;lon;timestamp;P1;durP1;ratioP1;P2;durP2;ratioP2
17310;SDS011;8773;43.300;0.394;2023-01-24T00:01:50;28.07;;;21.07;;
17310;SDS011;8773;43.300;0.394;2023-01-24T00:04:19;26.43;;;20.63;;
17310;SDS011;8773;43.300;0.394;2023-01-24T00:06:47;28.07;;;21.30;;
17310;SDS011;8773;43.300;0.394;2023-01-24T00:09:15;29.27;;;21.70;;
17310;SDS011;8773;43.300;0.394;2023-01-24T00:11:43;26.87;;;20.87;;
17310;SDS011;8773;43.300;0.394;2023-01-24T00:14:11;32.23;;;22.57;;
17310;SDS011;8773;43.300;0.394;2023-01-24T00:16:39;31.33;;;23.10;;
17310;SDS011;8773;43.300;0.394;2023-01-24T00:19:08;31.23;;;22.97;;
17310;SDS011;8773;43.300;0.394;2023-01-24T00:21:38;32.10;;;23.67;;
17310;SDS011;8773;43.300;0.394;2023-01-24T00:24:06;31.67;;;22.47;;
17310;SDS011;8773;43.300;0.394;2023-01-24T00:26:34;30.97;;;22.10;;
17310;SDS011;8773;43.300;0.394;2023-01-24T00:29:02;30.33;;;22.33;;
17310;SDS011;8773;43.300;0.394;2023-01-24T00:31:31;31.30;;;22.17;;
17310;SDS011;8773;43.300;0.394;2023-01-24T00:33:59;31.43;;;21.87;;
17310;SDS011;8773;43.300;0.394;2023-01-24T00:36:30;27.60;;;20.63;;
17310;SDS011;8773;43.300;0.394;2023-01-24T00:38:59;31.00;;;22.37;;
17310;SDS011;8773;43.300;0.394;2023-01-24T00:41:27;30.37;;;21.87;;
17310;SDS011;8773;43.300;0.394;2023-01-24T00:43:55;30.10;;;21.63;;
17310;SDS011;8773;43.300;0.394;2023-01-24T00:46:23;31.83;;;21.93;;
17310;SDS011;8773;43.300;0.394;2023-01-24T00:48:51;30.43;;;22.40;;
17310;SDS011;8773;43.300;0.394;2023-01-24T00:51:19;29.53;;;22.67;;
17310;SDS011;8773;43.300;0.394;2023-01-24T00:53:48;30.50;;;21.70;;
17310;SDS011;8773;43.300;0.394;2023-01-24T00:56:17;26.77;;;21.23;;
17310;SDS011;8773;43.300;0.394;2023-01-24T00:58:45;27.30;;;21.40;;
17310;SDS011;8773;43.300;0.394;2023-01-24T01:01:13;31.10;;;21.53;;
17310;SDS011;8773;43.300;0.394;2023-01-24T01:03:41;29.23;;;21.63;;
17310;SDS011;8773;43.300;0.394;2023-01-24T01:06:10;29.73;;;22.63;;
17310;SDS011;8773;43.300;0.394;2023-01-24T01:08:41;31.57;;;22.67;;
17310;SDS011;8773;43.300;0.394;2023-01-24T01:11:10;27.23;;;20.97;;
17310;SDS011;8773;43.300;0.394;2023-01-24T01:13:39;30.10;;;22.70;;
17310;SDS011;8773;43.300;0.394;2023-01-24T01:16:11;28.73;;;22.03;;
17310;SDS011;8773;43.300;0.394;2023-01-24T01:18:42;30.37;;;22.07;;
17310;SDS011;8773;43.300;0.394;2023-01-24T01:21:11;29.87;;;22.27;;
17310;SDS011;8773;43.300;0.394;2023-01-24T01:23:40;28.07;;;20.33;;
17310;SDS011;8773;43.300;0.394;2023-01-24T01:26:10;30.03;;;21.37;;
17310;SDS011;8773;43.300;0.394;2023-01-24T01:28:43;29.27;;;21.23;;
17310;SDS011;8773;43.300;0.394;2023-01-24T01:31:12;31.83;;;21.70;;
17310;SDS011;8773;43.300;0.394;2023-01-24T01:33:40;29.03;;;21.30;;
17310;SDS011;8773;43.300;0.394;2023-01-24T01:36:10;29.77;;;21.40;;
17310;SDS011;8773;43.300;0.394;2023-01-24T01:38:38;29.70;;;21.93;;
17310;SDS011;8773;43.300;0.394;2023-01-24T01:41:06;26.83;;;21.10;;
17310;SDS011;8773;43.300;0.394;2023-01-24T01:43:34;30.70;;;22.20;;
17310;SDS011;8773;43.300;0.394;2023-01-24T01:46:08;29.40;;;21.83;;
17310;SDS011;8773;43.300;0.394;2023-01-24T01:48:46;30.27;;;22.73;;
17310;SDS011;8773;43.300;0.394;2023-01-24T01:51:19;31.57;;;23.77;;
17310;SDS011;8773;43.300;0.394;2023-01-24T01:53:51;29.93;;;22.70;;
17310;SDS011;8773;43.300;0.394;2023-01-24T01:56:24;30.37;;;23.50;;
17310;SDS011;8773;43.300;0.394;2023-01-24T01:58:57;29.67;;;21.43;;
17310;SDS011;8773;43.300;0.394;2023-01-24T02:01:31;30.63;;;21.03;;
17310;SDS011;8773;43.300;0.394;2023-01-24T02:04:03;29.17;;;21.30;;
17310;SDS011;8773;43.300;0.394;2023-01-24T02:06:42;31.73;;;21.03;;
17310;SDS011;8773;43.300;0.394;2023-01-24T02:09:26;29.33;;;22.10;;
17310;SDS011;8773;43.300;0.394;2023-01-24T02:11:57;31.37;;;23.27;;
17310;SDS011;8773;43.300;0.394;2023-01-24T02:14:28;29.30;;;22.23;;
17310;SDS011;8773;43.300;0.394;2023-01-24T02:17:23;32.10;;;23.17;;
17310;SDS011;8773;43.300;0.394;2023-01-24T02:20:02;33.60;;;23.37;;
17310;SDS011;8773;43.300;0.394;2023-01-24T02:22:41;31.13;;;22.73;;
17310;SDS011;8773;43.300;0.394;2023-01-24T02:25:18;33.73;;;23.93;;
17310;SDS011;8773;43.300;0.394;2023-01-24T02:27:51;34.17;;;23.67;;
17310;SDS011;8773;43.300;0.394;2023-01-24T02:30:20;31.07;;;21.67;;
17310;SDS011;8773;43.300;0.394;2023-01-24T02:32:48;33.63;;;23.67;;
17310;SDS011;8773;43.300;0.394;2023-01-24T02:35:21;35.50;;;24.60;;
17310;SDS011;8773;43.300;0.394;2023-01-24T02:37:55;34.07;;;24.43;;
17310;SDS011;8773;43.300;0.394;2023-01-24T02:40:25;33.93;;;24.00;;
17310;SDS011;8773;43.300;0.394;2023-01-24T02:43:01;34.57;;;24.73;;
17310;SDS011;8773;43.300;0.394;2023-01-24T02:45:31;36.07;;;26.50;;
17310;SDS011;8773;43.300;0.394;2023-01-24T02:48:01;35.90;;;24.43;;
17310;SDS011;8773;43.300;0.394;2023-01-24T02:50:30;34.43;;;24.23;;
17310;SDS011;8773;43.300;0.394;2023-01-24T02:53:20;36.27;;;24.53;;
17310;SDS011;8773;43.300;0.394;2023-01-24T02:55:57;35.27;;;24.10;;
17310;SDS011;8773;43.300;0.394;2023-01-24T02:58:45;36.87;;;25.33;;
17310;SDS011;8773;43.300;0.394;2023-01-24T03:01:14;33.53;;;23.90;;
17310;SDS011;8773;43.300;0.394;2023-01-24T03:03:43;35.20;;;24.90;;
17310;SDS011;8773;43.300;0.394;2023-01-24T03:06:14;36.20;;;24.57;;
17310;SDS011;8773;43.300;0.394;2023-01-24T03:08:44;37.60;;;25.30;;
17310;SDS011;8773;43.300;0.394;2023-01-24T03:11:12;37.30;;;25.07;;
17310;SDS011;8773;43.300;0.394;2023-01-24T03:13:40;34.17;;;23.70;;
17310;SDS011;8773;43.300;0.394;2023-01-24T03:16:27;37.73;;;24.87;;
17310;SDS011;8773;43.300;0.394;2023-01-24T03:19:13;33.57;;;24.13;;
17310;SDS011;8773;43.300;0.394;2023-01-24T03:21:58;33.37;;;23.90;;
17310;SDS011;8773;43.300;0.394;2023-01-24T03:24:44;37.23;;;24.60;;
17310;SDS011;8773;43.300;0.394;2023-01-24T03:27:29;35.57;;;25.03;;
17310;SDS011;8773;43.300;0.394;2023-01-24T03:30:17;36.50;;;25.07;;
17310;SDS011;8773;43.300;0.394;2023-01-24T03:33:04;35.10;;;24.80;;
17310;SDS011;8773;43.300;0.394;2023-01-24T03:35:50;39.57;;;26.07;;
17310;SDS011;8773;43.300;0.394;2023-01-24T03:38:21;38.73;;;25.63;;
17310;SDS011;8773;43.300;0.394;2023-01-24T03:41:07;36.63;;;25.67;;
17310;SDS011;8773;43.300;0.394;2023-01-24T03:43:35;38.57;;;25.97;;
17310;SDS011;8773;43.300;0.394;2023-01-24T03:46:03;37.87;;;27.00;;
17310;SDS011;8773;43.300;0.394;2023-01-24T03:48:33;36.50;;;25.43;;
17310;SDS011;8773;43.300;0.394;2023-01-24T03:51:03;38.67;;;26.67;;
17310;SDS011;8773;43.300;0.394;2023-01-24T03:53:49;37.53;;;25.90;;
17310;SDS011;8773;43.300;0.394;2023-01-24T03:56:18;36.97;;;24.83;;
17310;SDS011;8773;43.300;0.394;2023-01-24T03:58:46;37.03;;;25.30;;
17310;SDS011;8773;43.300;0.394;2023-01-24T04:01:14;38.57;;;25.83;;
17310;SDS011;8773;43.300;0.394;2023-01-24T04:03:44;38.23;;;25.67;;
17310;SDS011;8773;43.300;0.394;2023-01-24T04:06:12;36.20;;;24.67;;
17310;SDS011;8773;43.300;0.394;2023-01-24T04:08:40;38.20;;;25.80;;
17310;SDS011;8773;43.300;0.394;2023-01-24T04:11:08;33.63;;;24.03;;
17310;SDS011;8773;43.300;0.394;2023-01-24T04:13:36;33.63;;;24.67;;
17310;SDS011;8773;43.300;0.394;2023-01-24T04:16:05;36.83;;;26.17;;
17310;SDS011;8773;43.300;0.394;2023-01-24T04:18:34;34.27;;;25.63;;
17310;SDS011;8773;43.300;0.394;2023-01-24T04:21:05;36.53;;;24.10;;
17310;SDS011;8773;43.300;0.394;2023-01-24T04:23:33;34.47;;;24.40;;
17310;SDS011;8773;43.300;0.394;2023-01-24T04:26:01;35.47;;;24.40;;
17310;SDS011;8773;43.300;0.394;2023-01-24T04:28:30;31.33;;;23.13;;
17310;SDS011;8773;43.300;0.394;2023-01-24T04:30:59;31.83;;;22.67;;
17310;SDS011;8773;43.300;0.394;2023-01-24T04:33:30;34.57;;;23.67;;
17310;SDS011;8773;43.300;0.394;2023-01-24T04:35:59;35.13;;;23.83;;
17310;SDS011;8773;43.300;0.394;2023-01-24T04:38:28;34.30;;;23.77;;
17310;SDS011;8773;43.300;0.394;2023-01-24T04:40:57;33.23;;;23.27;;
17310;SDS011;8773;43.300;0.394;2023-01-24T04:43:28;34.97;;;25.17;;
17310;SDS011;8773;43.300;0.394;2023-01-24T04:45:56;35.80;;;24.10;;
17310;SDS011;8773;43.300;0.394;2023-01-24T04:48:25;34.13;;;23.63;;
17310;SDS011;8773;43.300;0.394;2023-01-24T04:50:57;37.03;;;25.23;;
17310;SDS011;8773;43.300;0.394;2023-01-24T04:53:25;38.10;;;26.47;;
17310;SDS011;8773;43.300;0.394;2023-01-24T04:55:58;37.40;;;25.00;;
17310;SDS011;8773;43.300;0.394;2023-01-24T04:58:27;37.23;;;25.13;;
17310;SDS011;8773;43.300;0.394;2023-01-24T05:00:55;38.33;;;25.37;;
17310;SDS011;8773;43.300;0.394;2023-01-24T05:03:25;40.00;;;24.87;;
17310;SDS011;8773;43.300;0.394;2023-01-24T05:05:54;40.40;;;26.70;;
17310;SDS011;8773;43.300;0.394;2023-01-24T05:08:22;33.63;;;23.83;;
17310;SDS011;8773;43.300;0.394;2023-01-24T05:10:50;37.07;;;24.60;;
17310;SDS011;8773;43.300;0.394;2023-01-24T05:13:19;37.57;;;25.37;;
17310;SDS011;8773;43.300;0.394;2023-01-24T05:15:48;37.00;;;24.70;;
17310;SDS011;8773;43.300;0.394;2023-01-24T05:18:16;33.53;;;24.33;;
17310;SDS011;8773;43.300;0.394;2023-01-24T05:20:45;32.87;;;22.97;;
17310;SDS011;8773;43.300;0.394;2023-01-24T05:23:13;36.47;;;24.40;;
17310;SDS011;8773;43.300;0.394;2023-01-24T05:25:42;35.03;;;23.87;;
17310;SDS011;8773;43.300;0.394;2023-01-24T05:28:10;34.33;;;24.00;;
17310;SDS011;8773;43.300;0.394;2023-01-24T05:30:39;35.23;;;23.77;;
17310;SDS011;8773;43.300;0.394;2023-01-24T05:33:07;39.83;;;27.27;;
17310;SDS011;8773;43.300;0.394;2023-01-24T05:35:35;39.47;;;26.97;;
17310;SDS011;8773;43.300;0.394;2023-01-24T05:38:04;35.27;;;24.37;;
17310;SDS011;8773;43.300;0.394;2023-01-24T05:40:32;32.87;;;22.33;;
17310;SDS011;8773;43.300;0.394;2023-01-24T05:43:00;35.53;;;24.47;;
17310;SDS011;8773;43.300;0.394;2023-01-24T05:45:31;35.33;;;24.10;;
17310;SDS011;8773;43.300;0.394;2023-01-24T05:48:00;34.17;;;22.80;;
17310;SDS011;8773;43.300;0.394;2023-01-24T05:50:28;32.37;;;22.97;;
17310;SDS011;8773;43.300;0.394;2023-01-24T05:52:56;32.47;;;22.30;;
17310;SDS011;8773;43.300;0.394;2023-01-24T05:55:24;34.93;;;22.80;;
17310;SDS011;8773;43.300;0.394;2023-01-24T05:57:52;28.27;;;20.80;;
17310;SDS011;8773;43.300;0.394;2023-01-24T06:00:20;29.50;;;21.30;;
17310;SDS011;8773;43.300;0.394;2023-01-24T06:02:49;34.03;;;23.63;;
17310;SDS011;8773;43.300;0.394;2023-01-24T06:05:21;37.93;;;25.00;;
17310;SDS011;8773;43.300;0.394;2023-01-24T06:07:50;33.77;;;23.93;;
17310;SDS011;8773;43.300;0.394;2023-01-24T06:10:18;32.87;;;23.00;;
17310;SDS011;8773;43.300;0.394;2023-01-24T06:12:49;33.63;;;23.67;;
17310;SDS011;8773;43.300;0.394;2023-01-24T06:15:17;32.27;;;22.87;;
17310;SDS011;8773;43.300;0.394;2023-01-24T06:17:45;32.30;;;23.10;;
17310;SDS011;8773;43.300;0.394;2023-01-24T06:20:13;29.23;;;21.23;;
17310;SDS011;8773;43.300;0.394;2023-01-24T06:22:45;31.70;;;22.20;;
17310;SDS011;8773;43.300;0.394;2023-01-24T06:25:19;33.63;;;23.47;;
17310;SDS011;8773;43.300;0.394;2023-01-24T06:27:50;33.53;;;22.30;;
17310;SDS011;8773;43.300;0.394;2023-01-24T06:30:19;32.87;;;22.73;;
17310;SDS011;8773;43.300;0.394;2023-01-24T06:32:55;32.73;;;23.07;;
17310;SDS011;8773;43.300;0.394;2023-01-24T06:35:36;31.87;;;22.67;;
17310;SDS011;8773;43.300;0.394;2023-01-24T06:38:18;34.30;;;23.93;;
17310;SDS011;8773;43.300;0.394;2023-01-24T06:40:50;32.60;;;23.30;;
17310;SDS011;8773;43.300;0.394;2023-01-24T06:43:22;36.33;;;24.37;;
17310;SDS011;8773;43.300;0.394;2023-01-24T06:45:51;34.63;;;22.97;;
17310;SDS011;8773;43.300;0.394;2023-01-24T06:48:19;33.47;;;23.07;;
17310;SDS011;8773;43.300;0.394;2023-01-24T06:50:47;35.43;;;23.73;;
17310;SDS011;8773;43.300;0.394;2023-01-24T06:53:15;35.63;;;24.93;;
17310;SDS011;8773;43.300;0.394;2023-01-24T06:55:45;34.07;;;24.57;;
17310;SDS011;8773;43.300;0.394;2023-01-24T06:58:13;33.07;;;23.27;;
17310;SDS011;8773;43.300;0.394;2023-01-24T07:00:41;33.47;;;22.47;;
17310;SDS011;8773;43.300;0.394;2023-01-24T07:03:09;31.27;;;22.60;;
17310;SDS011;8773;43.300;0.394;2023-01-24T07:05:38;32.90;;;22.50;;
17310;SDS011;8773;43.300;0.394;2023-01-24T07:08:06;32.07;;;22.23;;
17310;SDS011;8773;43.300;0.394;2023-01-24T07:10:34;30.83;;;22.37;;
17310;SDS011;8773;43.300;0.394;2023-01-24T07:13:06;41.57;;;28.97;;
17310;SDS011;8773;43.300;0.394;2023-01-24T07:15:34;33.07;;;22.10;;
17310;SDS011;8773;43.300;0.394;2023-01-24T07:18:06;27.97;;;20.90;;
17310;SDS011;8773;43.300;0.394;2023-01-24T07:20:35;29.80;;;21.43;;
17310;SDS011;8773;43.300;0.394;2023-01-24T07:23:04;32.17;;;22.40;;
17310;SDS011;8773;43.300;0.394;2023-01-24T07:25:32;34.20;;;22.63;;
17310;SDS011;8773;43.300;0.394;2023-01-24T07:28:03;30.20;;;21.80;;
17310;SDS011;8773;43.300;0.394;2023-01-24T07:30:33;30.43;;;22.20;;
17310;SDS011;8773;43.300;0.394;2023-01-24T07:33:01;29.80;;;21.90;;
17310;SDS011;8773;43.300;0.394;2023-01-24T07:35:32;33.50;;;22.73;;
17310;SDS011;8773;43.300;0.394;2023-01-24T07:38:00;33.17;;;23.27;;
17310;SDS011;8773;43.300;0.394;2023-01-24T07:40:28;32.13;;;23.33;;
17310;SDS011;8773;43.300;0.394;2023-01-24T07:42:58;35.00;;;24.90;;
17310;SDS011;8773;43.300;0.394;2023-01-24T07:45:26;33.90;;;24.57;;
17310;SDS011;8773;43.300;0.394;2023-01-24T07:47:59;34.03;;;24.47;;
17310;SDS011;8773;43.300;0.394;2023-01-24T07:50:27;32.03;;;23.60;;
17310;SDS011;8773;43.300;0.394;2023-01-24T07:52:57;31.20;;;22.57;;
17310;SDS011;8773;43.300;0.394;2023-01-24T07:55:26;35.30;;;25.80;;
17310;SDS011;8773;43.300;0.394;2023-01-24T07:57:57;33.27;;;24.93;;
17310;SDS011;8773;43.300;0.394;2023-01-24T08:00:26;36.80;;;24.73;;
17310;SDS011;8773;43.300;0.394;2023-01-24T08:02:54;32.03;;;23.77;;
17310;SDS011;8773;43.300;0.394;2023-01-24T08:05:24;35.73;;;25.13;;
17310;SDS011;8773;43.300;0.394;2023-01-24T08:07:53;34.90;;;24.87;;
17310;SDS011;8773;43.300;0.394;2023-01-24T08:10:21;33.80;;;23.93;;
17310;SDS011;8773;43.300;0.394;2023-01-24T08:12:50;36.53;;;25.90;;
17310;SDS011;8773;43.300;0.394;2023-01-24T08:15:21;35.33;;;26.87;;
17310;SDS011;8773;43.300;0.394;2023-01-24T08:17:49;38.43;;;28.00;;
17310;SDS011;8773;43.300;0.394;2023-01-24T08:20:17;32.70;;;24.93;;
17310;SDS011;8773;43.300;0.394;2023-01-24T08:22:53;33.80;;;24.40;;
17310;SDS011;8773;43.300;0.394;2023-01-24T08:25:24;33.60;;;25.57;;
17310;SDS011;8773;43.300;0.394;2023-01-24T08:27:56;35.63;;;25.87;;
17310;SDS011;8773;43.300;0.394;2023-01-24T08:30:24;40.57;;;30.00;;
17310;SDS011;8773;43.300;0.394;2023-01-24T08:32:59;38.50;;;28.07;;
17310;SDS011;8773;43.300;0.394;2023-01-24T08:35:27;35.23;;;24.97;;
17310;SDS011;8773;43.300;0.394;2023-01-24T08:37:57;31.00;;;23.40;;
17310;SDS011;8773;43.300;0.394;2023-01-24T08:40:25;32.13;;;22.90;;
17310;SDS011;8773;43.300;0.394;2023-01-24T08:42:59;32.00;;;23.07;;
17310;SDS011;8773;43.300;0.394;2023-01-24T08:45:30;33.33;;;25.17;;
17310;SDS011;8773;43.300;0.394;2023-01-24T08:47:59;34.40;;;25.50;;
17310;SDS011;8773;43.300;0.394;2023-01-24T08:50:27;32.07;;;23.27;;
17310;SDS011;8773;43.300;0.394;2023-01-24T08:52:56;30.13;;;21.93;;
17310;SDS011;8773;43.300;0.394;2023-01-24T08:55:24;30.70;;;22.13;;
17310;SDS011;8773;43.300;0.394;2023-01-24T08:58:00;26.50;;;18.60;;
17310;SDS011;8773;43.300;0.394;2023-01-24T09:00:28;24.13;;;18.70;;
17310;SDS011;8773;43.300;0.394;2023-01-24T09:02:57;25.20;;;19.63;;
17310;SDS011;8773;43.300;0.394;2023-01-24T09:05:30;27.67;;;20.37;;
17310;SDS011;8773;43.300;0.394;2023-01-24T09:08:00;27.93;;;19.63;;
17310;SDS011;8773;43.300;0.394;2023-01-24T09:10:28;23.13;;;17.07;;
17310;SDS011;8773;43.300;0.394;2023-01-24T09:12:56;27.90;;;19.20;;
17310;SDS011;8773;43.300;0.394;2023-01-24T09:15:24;25.43;;;17.97;;
17310;SDS011;8773;43.300;0.394;2023-01-24T09:17:52;25.47;;;18.50;;
17310;SDS011;8773;43.300;0.394;2023-01-24T09:20:20;28.03;;;19.30;;
17310;SDS011;8773;43.300;0.394;2023-01-24T09:22:48;25.03;;;18.33;;
17310;SDS011;8773;43.300;0.394;2023-01-24T09:25:18;25.27;;;18.07;;
17310;SDS011;8773;43.300;0.394;2023-01-24T09:27:51;24.23;;;18.43;;
17310;SDS011;8773;43.300;0.394;2023-01-24T09:30:20;24.73;;;18.53;;
17310;SDS011;8773;43.300;0.394;2023-01-24T09:32:50;23.93;;;17.57;;
17310;SDS011;8773;43.300;0.394;2023-01-24T09:35:18;24.73;;;17.77;;
17310;SDS011;8773;43.300;0.394;2023-01-24T09:37:46;23.10;;;17.43;;
17310;SDS011;8773;43.300;0.394;2023-01-24T09:40:20;22.27;;;16.50;;
17310;SDS011;8773;43.300;0.394;2023-01-24T09:42:54;22.57;;;16.87;;
17310;SDS011;8773;43.300;0.394;2023-01-24T09:45:30;25.20;;;17.67;;
17310;SDS011;8773;43.300;0.394;2023-01-24T09:48:00;26.03;;;19.27;;
17310;SDS011;8773;43.300;0.394;2023-01-24T09:50:32;26.57;;;18.93;;
17310;SDS011;8773;43.300;0.394;2023-01-24T09:53:07;24.67;;;17.37;;
17310;SDS011;8773;43.300;0.394;2023-01-24T09:55:43;22.83;;;17.20;;
17310;SDS011;8773;43.300;0.394;2023-01-24T09:58:16;24.50;;;17.73;;
17310;SDS011;8773;43.300;0.394;2023-01-24T10:01:01;22.37;;;17.03;;
17310;SDS011;8773;43.300;0.394;2023-01-24T10:03:33;22.90;;;17.13;;
17310;SDS011;8773;43.300;0.394;2023-01-24T10:06:05;22.53;;;16.43;;
17310;SDS011;8773;43.300;0.394;2023-01-24T10:08:39;23.57;;;16.37;;
17310;SDS011;8773;43.300;0.394;2023-01-24T10:11:20;22.20;;;16.87;;
17310;SDS011;8773;43.300;0.394;2023-01-24T10:14:08;23.43;;;16.40;;
17310;SDS011;8773;43.300;0.394;2023-01-24T10:17:01;24.60;;;17.17;;
17310;SDS011;8773;43.300;0.394;2023-01-24T10:19:58;21.83;;;16.47;;
17310;SDS011;8773;43.300;0.394;2023-01-24T10:22:44;22.53;;;16.73;;
17310;SDS011;8773;43.300;0.394;2023-01-24T10:25:24;21.70;;;16.40;;
17310;SDS011;8773;43.300;0.394;2023-01-24T10:27:56;25.17;;;16.90;;
17310;SDS011;8773;43.300;0.394;2023-01-24T10:30:35;20.40;;;16.17;;
17310;SDS011;8773;43.300;0.394;2023-01-24T10:33:10;20.37;;;14.90;;
17310;SDS011;8773;43.300;0.394;2023-01-24T10:35:46;21.40;;;15.63;;
17310;SDS011;8773;43.300;0.394;2023-01-24T10:38:28;18.90;;;14.63;;
17310;SDS011;8773;43.300;0.394;2023-01-24T10:40:58;18.87;;;14.10;;
17310;SDS011;8773;43.300;0.394;2023-01-24T10:43:42;19.23;;;14.50;;
17310;SDS011;8773;43.300;0.394;2023-01-24T10:46:17;19.10;;;14.43;;
17310;SDS011;8773;43.300;0.394;2023-01-24T10:48:57;18.17;;;14.10;;
17310;SDS011;8773;43.300;0.394;2023-01-24T10:51:28;17.87;;;13.63;;
17310;SDS011;8773;43.300;0.394;2023-01-24T10:54:00;18.17;;;14.40;;
17310;SDS011;8773;43.300;0.394;2023-01-24T10:56:29;16.43;;;13.07;;
17310;SDS011;8773;43.300;0.394;2023-01-24T10:58:59;17.20;;;13.03;;
17310;SDS011;8773;43.300;0.394;2023-01-24T11:01:33;17.50;;;12.47;;
17310;SDS011;8773;43.300;0.394;2023-01-24T11:04:12;16.73;;;13.30;;
17310;SDS011;8773;43.300;0.394;2023-01-24T11:06:44;19.10;;;14.40;;
17310;SDS011;8773;43.300;0.394;2023-01-24T11:09:14;19.87;;;14.67;;
17310;SDS011;8773;43.300;0.394;2023-01-24T11:11:46;22.47;;;16.03;;
17310;SDS011;8773;43.300;0.394;2023-01-24T11:14:21;21.60;;;15.93;;
17310;SDS011;8773;43.300;0.394;2023-01-24T11:16:52;22.07;;;15.37;;
17310;SDS011;8773;43.300;0.394;2023-01-24T11:19:26;18.60;;;15.73;;
17310;SDS011;8773;43.300;0.394;2023-01-24T11:21:56;19.27;;;14.87;;
17310;SDS011;8773;43.300;0.394;2023-01-24T11:24:26;19.27;;;14.50;;
17310;SDS011;8773;43.300;0.394;2023-01-24T11:26:56;17.23;;;13.30;;
17310;SDS011;8773;43.300;0.394;2023-01-24T11:29:31;16.90;;;13.30;;
17310;SDS011;8773;43.300;0.394;2023-01-24T11:32:03;19.57;;;14.40;;
17310;SDS011;8773;43.300;0.394;2023-01-24T11:34:49;17.70;;;13.87;;
17310;SDS011;8773;43.300;0.394;2023-01-24T11:37:31;16.47;;;13.07;;
17310;SDS011;8773;43.300;0.394;2023-01-24T11:40:32;16.57;;;12.00;;
17310;SDS011;8773;43.300;0.394;2023-01-24T11:48:59;17.90;;;13.60;;
17310;SDS011;8773;43.300;0.394;2023-01-24T11:51:46;14.90;;;13.27;;
17310;SDS011;8773;43.300;0.394;2023-01-24T11:57:18;17.47;;;14.10;;
17310;SDS011;8773;43.300;0.394;2023-01-24T11:59:58;16.73;;;13.03;;
17310;SDS011;8773;43.300;0.394;2023-01-24T12:02:47;17.17;;;13.57;;
17310;SDS011;8773;43.300;0.394;2023-01-24T12:05:41;14.03;;;12.53;;
17310;SDS011;8773;43.300;0.394;2023-01-24T12:08:24;14.80;;;12.20;;
17310;SDS011;8773;43.300;0.394;2023-01-24T12:11:11;16.80;;;13.17;;
17310;SDS011;8773;43.300;0.394;2023-01-24T12:14:14;19.77;;;15.77;;
17310;SDS011;8773;43.300;0.394;2023-01-24T12:17:02;20.70;;;15.73;;
17310;SDS011;8773;43.300;0.394;2023-01-24T12:19:54;11.57;;;10.00;;
17310;SDS011;8773;43.300;0.394;2023-01-24T12:22:30;12.73;;;10.90;;
17310;SDS011;8773;43.300;0.394;2023-01-24T12:25:00;14.63;;;11.53;;
17310;SDS011;8773;43.300;0.394;2023-01-24T12:27:33;14.20;;;12.63;;
17310;SDS011;8773;43.300;0.394;2023-01-24T12:30:05;13.50;;;10.83;;
17310;SDS011;8773;43.300;0.394;2023-01-24T12:32:40;10.50;;;9.17;;
17310;SDS011;8773;43.300;0.394;2023-01-24T12:35:16;8.57;;;7.50;;
17310;SDS011;8773;43.300;0.394;2023-01-24T12:37:54;12.27;;;10.97;;
17310;SDS011;8773;43.300;0.394;2023-01-24T12:40:39;12.17;;;9.87;;
17310;SDS011;8773;43.300;0.394;2023-01-24T12:43:15;9.57;;;7.70;;
17310;SDS011;8773;43.300;0.394;2023-01-24T12:45:59;8.00;;;7.20;;
17310;SDS011;8773;43.300;0.394;2023-01-24T12:48:35;8.37;;;7.47;;
17310;SDS011;8773;43.300;0.394;2023-01-24T12:51:12;8.03;;;7.27;;
17310;SDS011;8773;43.300;0.394;2023-01-24T12:53:52;8.77;;;7.40;;
17310;SDS011;8773;43.300;0.394;2023-01-24T12:56:27;8.23;;;7.43;;
17310;SDS011;8773;43.300;0.394;2023-01-24T12:59:03;7.23;;;6.60;;
17310;SDS011;8773;43.300;0.394;2023-01-24T13:01:56;8.37;;;7.57;;
17310;SDS011;8773;43.300;0.394;2023-01-24T13:04:46;6.77;;;6.17;;
17310;SDS011;8773;43.300;0.394;2023-01-24T13:07:26;7.30;;;6.67;;
17310;SDS011;8773;43.300;0.394;2023-01-24T13:10:09;7.03;;;6.47;;
17310;SDS011;8773;43.300;0.394;2023-01-24T13:12:45;7.13;;;6.43;;
17310;SDS011;8773;43.300;0.394;2023-01-24T13:15:17;7.07;;;6.43;;
17310;SDS011;8773;43.300;0.394;2023-01-24T13:23:38;7.37;;;6.67;;
17310;SDS011;8773;43.300;0.394;2023-01-24T13:26:26;5.53;;;5.13;;
17310;SDS011;8773;43.300;0.394;2023-01-24T13:29:12;6.80;;;6.30;;
17310;SDS011;8773;43.300;0.394;2023-01-24T13:31:54;6.27;;;5.77;;
17310;SDS011;8773;43.300;0.394;2023-01-24T13:34:30;7.37;;;6.77;;
17310;SDS011;8773;43.300;0.394;2023-01-24T13:37:01;7.13;;;6.53;;
17310;SDS011;8773;43.300;0.394;2023-01-24T13:39:33;7.40;;;6.73;;
17310;SDS011;8773;43.300;0.394;2023-01-24T13:42:05;8.00;;;7.27;;
17310;SDS011;8773;43.300;0.394;2023-01-24T13:44:48;7.20;;;6.60;;
17310;SDS011;8773;43.300;0.394;2023-01-24T13:47:27;7.90;;;7.20;;
17310;SDS011;8773;43.300;0.394;2023-01-24T13:52:49;6.70;;;6.20;;
17310;SDS011;8773;43.300;0.394;2023-01-24T13:58:28;7.13;;;6.43;;
17310;SDS011;8773;43.300;0.394;2023-01-24T14:00:58;6.27;;;5.77;;
17310;SDS011;8773;43.300;0.394;2023-01-24T14:03:28;6.27;;;5.77;;
17310;SDS011;8773;43.300;0.394;2023-01-24T14:06:11;5.50;;;5.10;;
17310;SDS011;8773;43.300;0.394;2023-01-24T14:11:50;6.37;;;5.87;;
17310;SDS011;8773;43.300;0.394;2023-01-24T14:14:29;6.73;;;6.23;;
17310;SDS011;8773;43.300;0.394;2023-01-24T14:20:15;8.30;;;7.50;;
17310;SDS011;8773;43.300;0.394;2023-01-24T14:22:50;7.20;;;6.50;;
17310;SDS011;8773;43.300;0.394;2023-01-24T14:25:38;7.50;;;6.80;;
17310;SDS011;8773;43.300;0.394;2023-01-24T14:28:15;6.70;;;6.10;;
17310;SDS011;8773;43.300;0.394;2023-01-24T14:30:49;6.80;;;6.20;;
17310;SDS011;8773;43.300;0.394;2023-01-24T14:33:37;6.93;;;6.33;;
17310;SDS011;8773;43.300;0.394;2023-01-24T14:36:21;7.23;;;6.53;;
17310;SDS011;8773;43.300;0.394;2023-01-24T14:39:14;6.93;;;6.40;;
17310;SDS011;8773;43.300;0.394;2023-01-24T14:41:49;6.33;;;5.93;;
17310;SDS011;8773;43.300;0.394;2023-01-24T14:44:21;5.90;;;5.50;;
17310;SDS011;8773;43.300;0.394;2023-01-24T14:46:52;6.00;;;5.60;;
17310;SDS011;8773;43.300;0.394;2023-01-24T14:49:26;6.43;;;5.93;;
17310;SDS011;8773;43.300;0.394;2023-01-24T14:51:56;6.40;;;5.90;;
17310;SDS011;8773;43.300;0.394;2023-01-24T14:54:43;6.63;;;5.90;;
17310;SDS011;8773;43.300;0.394;2023-01-24T14:57:18;8.00;;;7.30;;
17310;SDS011;8773;43.300;0.394;2023-01-24T15:00:03;7.53;;;6.93;;
17310;SDS011;8773;43.300;0.394;2023-01-24T15:02:34;8.10;;;7.30;;
17310;SDS011;8773;43.300;0.394;2023-01-24T15:05:11;6.17;;;5.67;;
17310;SDS011;8773;43.300;0.394;2023-01-24T15:07:54;6.63;;;6.13;;
17310;SDS011;8773;43.300;0.394;2023-01-24T15:10:23;7.47;;;6.80;;
17310;SDS011;8773;43.300;0.394;2023-01-24T15:12:52;7.37;;;6.77;;
17310;SDS011;8773;43.300;0.394;2023-01-24T15:15:23;6.93;;;6.33;;
17310;SDS011;8773;43.300;0.394;2023-01-24T15:17:54;7.87;;;7.17;;
17310;SDS011;8773;43.300;0.394;2023-01-24T15:20:28;8.27;;;7.53;;
17310;SDS011;8773;43.300;0.394;2023-01-24T15:22:57;7.77;;;6.97;;
17310;SDS011;8773;43.300;0.394;2023-01-24T15:25:29;7.47;;;6.87;;
17310;SDS011;8773;43.300;0.394;2023-01-24T15:28:07;7.80;;;7.20;;
17310;SDS011;8773;43.300;0.394;2023-01-24T15:30:38;7.33;;;6.70;;
17310;SDS011;8773;43.300;0.394;2023-01-24T15:33:18;9.20;;;7.47;;
17310;SDS011;8773;43.300;0.394;2023-01-24T15:35:46;7.90;;;7.20;;
17310;SDS011;8773;43.300;0.394;2023-01-24T15:38:19;7.67;;;6.97;;
17310;SDS011;8773;43.300;0.394;2023-01-24T15:40:53;7.67;;;7.07;;